Time;durP1;ratioP1;P1;durP2;ratioP2;P2;SDS_P1;SDS_P2;PMS_P1;PMS_P2;Temp;Humidity;BMP_temperature;BMP_pressure;BME280_temperature;BME280_humidity;BME280_pressure;Samples;Min_cycle;Max_cycle;Signal;HPM_P1;HPM_P2
2023/05/08 00:00:14;;;;;;;23.90;21.43;;;17.50;99.90;;;;;;5010855;28;20202;-82
2023/05/08 00:02:43;;;;;;;22.20;20.10;;;17.40;99.90;;;;;;5003576;28;20183;-83
2023/05/08 00:05:09;;;;;;;22.93;20.67;;;17.40;99.90;;;;;;5005206;28;20417;-82
2023/05/08 00:07:36;;;;;;;23.17;20.97;;;17.30;99.90;;;;;;4987093;28;20183;-83
2023/05/08 00:10:03;;;;;;;21.70;19.60;;;17.30;99.90;;;;;;5008274;28;20761;-82
2023/05/08 00:12:29;;;;;;;21.70;19.50;;;17.30;99.90;;;;;;5004414;28;20501;-83
2023/05/08 00:14:55;;;;;;;23.17;20.93;;;17.30;99.90;;;;;;5005387;28;20509;-82
2023/05/08 00:17:21;;;;;;;22.70;20.57;;;17.20;99.90;;;;;;5003333;28;20662;-82
2023/05/08 00:19:47;;;;;;;23.40;21.00;;;17.20;99.90;;;;;;5014609;28;20410;-82
2023/05/08 00:22:13;;;;;;;24.27;21.77;;;17.10;99.90;;;;;;5009064;28;20498;-83
2023/05/08 00:24:39;;;;;;;23.50;21.20;;;17.10;99.90;;;;;;5001614;28;20516;-83
2023/05/08 00:27:06;;;;;;;25.17;22.77;;;17.20;99.90;;;;;;5004553;28;20914;-83
2023/05/08 00:29:33;;;;;;;21.30;19.20;;;17.10;99.90;;;;;;5004222;28;20180;-84
2023/05/08 00:31:59;;;;;;;21.50;19.30;;;17.20;99.90;;;;;;5002090;28;20512;-83
2023/05/08 00:34:25;;;;;;;22.50;20.13;;;17.20;99.90;;;;;;5002966;28;20436;-83
2023/05/08 00:36:51;;;;;;;23.87;21.70;;;17.20;99.90;;;;;;5004518;28;21006;-83
2023/05/08 00:39:17;;;;;;;22.57;20.40;;;17.20;99.90;;;;;;5003411;28;20293;-83
2023/05/08 00:41:43;;;;;;;24.47;22.17;;;17.20;99.90;;;;;;5001720;28;20446;-83
2023/05/08 00:44:09;;;;;;;22.03;19.93;;;17.20;99.90;;;;;;5011092;28;20421;-84
2023/05/08 00:46:35;;;;;;;24.30;21.70;;;17.20;99.90;;;;;;5014122;28;20167;-83
2023/05/08 00:49:03;;;;;;;21.90;19.53;;;17.20;99.90;;;;;;5014943;28;20178;-83
2023/05/08 00:51:30;;;;;;;21.23;19.13;;;17.20;99.90;;;;;;5013086;28;20949;-83
2023/05/08 00:53:56;;;;;;;22.03;19.93;;;17.20;99.90;;;;;;5004672;28;20541;-82
2023/05/08 00:56:23;;;;;;;23.30;21.00;;;17.20;99.90;;;;;;4993612;28;21066;-80
2023/05/08 00:58:50;;;;;;;25.33;21.40;;;17.10;99.90;;;;;;4993978;28;20664;-84
2023/05/08 01:01:16;;;;;;;23.07;20.87;;;17.10;99.90;;;;;;5010403;28;20851;-84
2023/05/08 01:03:43;;;;;;;23.47;21.10;;;17.10;99.90;;;;;;5012470;28;20473;-83
2023/05/08 01:06:10;;;;;;;24.30;21.87;;;17.10;99.90;;;;;;5011514;28;20421;-83
2023/05/08 01:08:35;;;;;;;22.30;20.20;;;17.10;99.90;;;;;;5012782;28;20417;-83
2023/05/08 01:11:29;;;;;;;22.70;20.27;;;17.10;99.90;;;;;;5013011;28;20414;-83
2023/05/08 01:14:30;;;;;;;22.60;20.30;;;17.10;99.90;;;;;;5013046;28;20657;-83
2023/05/08 01:17:19;;;;;;;23.60;21.17;;;17.10;99.90;;;;;;5013824;28;20418;-82
2023/05/08 01:20:22;;;;;;;24.20;21.70;;;17.10;99.90;;;;;;5013012;28;20445;-82
2023/05/08 01:23:07;;;;;;;24.20;21.70;;;17.10;99.90;;;;;;5013526;28;20472;-83
2023/05/08 01:26:18;;;;;;;22.80;20.60;;;17.10;99.90;;;;;;5012868;28;20398;-83
2023/05/08 01:28:49;;;;;;;23.50;21.37;;;17.10;99.90;;;;;;5011393;28;20440;-83
2023/05/08 01:31:46;;;;;;;22.47;20.27;;;17.10;99.90;;;;;;5012840;28;20425;-84
2023/05/08 01:34:24;;;;;;;22.87;20.67;;;17.10;99.90;;;;;;5013309;28;20460;-82
2023/05/08 01:37:12;;;;;;;21.80;19.70;;;17.20;99.90;;;;;;5013298;28;20410;-83
2023/05/08 01:40:09;;;;;;;22.37;20.17;;;17.10;99.90;;;;;;5010362;28;20522;-83
2023/05/08 01:42:52;;;;;;;22.80;20.70;;;17.10;99.90;;;;;;5010937;28;20418;-83
2023/05/08 01:45:38;;;;;;;22.97;20.67;;;17.10;99.90;;;;;;5010144;28;20430;-83
2023/05/08 01:48:08;;;;;;;23.80;21.50;;;17.10;99.90;;;;;;5012747;28;20395;-81
2023/05/08 01:50:39;;;;;;;22.97;20.60;;;17.10;99.90;;;;;;5011089;28;20739;-83
2023/05/08 01:53:30;;;;;;;21.97;19.97;;;17.10;99.90;;;;;;5009408;28;20805;-82
2023/05/08 01:56:10;;;;;;;21.93;19.63;;;17.10;99.90;;;;;;5010880;28;20497;-82
2023/05/08 01:58:38;;;;;;;24.00;21.50;;;17.10;99.90;;;;;;5011571;28;20532;-82
2023/05/08 02:01:10;;;;;;;21.60;19.50;;;17.10;99.90;;;;;;5012222;28;20575;-82
2023/05/08 02:03:38;;;;;;;21.67;19.67;;;17.10;99.90;;;;;;5011808;28;20414;-82
2023/05/08 02:06:05;;;;;;;22.03;19.83;;;17.10;99.90;;;;;;5012352;28;20459;-83
2023/05/08 02:08:33;;;;;;;23.37;20.60;;;17.10;99.90;;;;;;5011431;28;20912;-82
2023/05/08 02:11:00;;;;;;;22.63;20.40;;;17.10;99.90;;;;;;5009960;28;20444;-82
2023/05/08 02:13:27;;;;;;;23.70;21.40;;;17.10;99.90;;;;;;5011289;28;20418;-84
2023/05/08 02:15:55;;;;;;;21.27;19.10;;;17.10;99.90;;;;;;5012243;28;20406;-83
2023/05/08 02:18:23;;;;;;;22.20;20.10;;;17.10;99.90;;;;;;5011487;28;20450;-79
2023/05/08 02:20:50;;;;;;;21.40;19.30;;;17.10;99.90;;;;;;5011985;28;20473;-82
2023/05/08 02:23:24;;;;;;;20.53;18.73;;;17.10;99.90;;;;;;5012188;28;20448;-83
2023/05/08 02:25:51;;;;;;;21.73;19.53;;;17.10;99.90;;;;;;5010856;28;20426;-83
2023/05/08 02:28:18;;;;;;;23.73;21.47;;;17.10;99.90;;;;;;5010768;28;20502;-83
2023/05/08 02:30:46;;;;;;;23.50;21.30;;;17.10;99.90;;;;;;5010238;28;20410;-83
2023/05/08 02:33:13;;;;;;;23.57;21.07;;;17.10;99.90;;;;;;5012029;28;20789;-83
2023/05/08 02:35:42;;;;;;;22.67;20.60;;;17.00;99.90;;;;;;5011292;28;20410;-83
2023/05/08 02:38:09;;;;;;;23.47;21.17;;;17.00;99.90;;;;;;5011130;28;20576;-83
2023/05/08 02:40:38;;;;;;;25.00;22.20;;;17.00;99.90;;;;;;5010041;28;20480;-83
2023/05/08 02:43:04;;;;;;;23.03;20.70;;;17.00;99.90;;;;;;5011057;28;20476;-83
2023/05/08 02:45:42;;;;;;;23.97;21.60;;;17.10;99.90;;;;;;5011227;28;20414;-84
2023/05/08 02:48:37;;;;;;;23.33;20.93;;;17.10;99.90;;;;;;5012090;28;20432;-84
2023/05/08 02:51:16;;;;;;;22.60;20.43;;;17.10;99.90;;;;;;5011380;28;20512;-83
2023/05/08 02:53:49;;;;;;;23.30;21.17;;;17.10;99.90;;;;;;5009989;28;21178;-82
2023/05/08 02:56:36;;;;;;;23.60;21.30;;;17.10;99.90;;;;;;5011527;28;20422;-83
2023/05/08 02:59:10;;;;;;;24.67;21.60;;;17.10;99.90;;;;;;5010851;28;20887;-83
2023/05/08 03:02:02;;;;;;;24.00;20.43;;;17.00;99.90;;;;;;5010463;28;20421;-83
2023/05/08 03:04:35;;;;;;;22.87;20.57;;;17.00;99.90;;;;;;5014785;28;20405;-84
2023/05/08 03:07:03;;;;;;;23.37;20.93;;;17.00;99.90;;;;;;5019200;28;20394;-80
2023/05/08 03:09:40;;;;;;;24.40;21.90;;;17.00;99.90;;;;;;5014026;28;20453;-80
2023/05/08 03:12:13;;;;;;;22.87;20.67;;;17.00;99.90;;;;;;4998463;28;20395;-84
2023/05/08 03:14:45;;;;;;;22.93;20.63;;;17.00;99.90;;;;;;4997755;28;20445;-83
2023/05/08 03:17:15;;;;;;;22.90;20.67;;;17.00;99.90;;;;;;4998763;28;20886;-83
2023/05/08 03:19:45;;;;;;;22.50;20.20;;;17.00;99.90;;;;;;4997969;28;20497;-82
2023/05/08 03:22:14;;;;;;;22.80;20.40;;;17.00;99.90;;;;;;4997144;28;20473;-86
2023/05/08 03:24:42;;;;;;;23.60;21.30;;;17.00;99.90;;;;;;4997576;28;21015;-84
2023/05/08 03:27:09;;;;;;;22.87;20.47;;;17.00;99.90;;;;;;5011131;28;20772;-84
2023/05/08 03:29:38;;;;;;;22.50;20.30;;;17.00;99.90;;;;;;5016078;28;20402;-86
2023/05/08 03:32:05;;;;;;;23.83;21.30;;;17.00;99.90;;;;;;5016974;28;20440;-83
2023/05/08 03:34:32;;;;;;;23.07;20.53;;;17.00;99.90;;;;;;5017395;28;20456;-82
2023/05/08 03:36:58;;;;;;;23.33;21.10;;;17.00;99.90;;;;;;5015431;28;20508;-83
2023/05/08 03:39:25;;;;;;;22.63;20.40;;;17.00;99.90;;;;;;5017289;28;20548;-84
2023/05/08 03:41:51;;;;;;;20.73;18.73;;;17.00;99.90;;;;;;5017191;28;20183;-84
2023/05/08 03:44:18;;;;;;;23.00;20.80;;;17.00;99.90;;;;;;5018472;28;20460;-84
2023/05/08 03:46:46;;;;;;;23.17;20.87;;;17.00;99.90;;;;;;5018497;28;20229;-84
2023/05/08 03:49:14;;;;;;;20.90;18.70;;;17.00;99.90;;;;;;5018539;28;20406;-84
2023/05/08 03:51:41;;;;;;;22.57;20.47;;;17.00;99.90;;;;;;5017224;28;20537;-84
2023/05/08 03:54:06;;;;;;;21.67;19.67;;;17.00;99.90;;;;;;5018691;28;20406;-84
2023/05/08 03:56:33;;;;;;;23.83;21.43;;;17.00;99.90;;;;;;5017296;28;20491;-84
2023/05/08 03:59:22;;;;;;;24.60;22.10;;;17.00;99.90;;;;;;5018955;28;20664;-85
2023/05/08 04:01:53;;;;;;;21.30;19.40;;;17.00;99.90;;;;;;5018305;28;20406;-84
2023/05/08 04:04:26;;;;;;;23.20;21.00;;;17.00;99.90;;;;;;5017297;28;20821;-80
2023/05/08 04:07:02;;;;;;;22.37;20.20;;;17.00;99.90;;;;;;5016402;28;20437;-84
2023/05/08 04:09:33;;;;;;;23.53;21.20;;;17.10;99.90;;;;;;5017938;28;20406;-84
2023/05/08 04:12:13;;;;;;;22.63;20.43;;;17.00;99.90;;;;;;5018317;28;20394;-82
2023/05/08 04:15:03;;;;;;;23.33;21.00;;;17.00;99.90;;;;;;5013314;28;20570;-84
2023/05/08 04:17:42;;;;;;;22.70;20.60;;;17.00;99.90;;;;;;4998701;28;20451;-83
2023/05/08 04:20:12;;;;;;;25.43;21.87;;;17.00;99.90;;;;;;4998384;28;20461;-84
2023/05/08 04:22:39;;;;;;;21.27;19.13;;;17.00;99.90;;;;;;5007324;28;20399;-86
2023/05/08 04:25:07;;;;;;;22.03;19.67;;;17.00;99.90;;;;;;5008237;28;20573;-84
2023/05/08 04:27:35;;;;;;;22.17;19.97;;;17.00;99.90;;;;;;5012754;28;20425;-83
2023/05/08 04:30:01;;;;;;;21.03;18.93;;;17.00;99.90;;;;;;4995141;28;20481;-85
2023/05/08 04:32:29;;;;;;;22.47;20.20;;;17.00;99.90;;;;;;4998784;28;20420;-84
2023/05/08 04:34:55;;;;;;;21.50;19.40;;;17.00;99.90;;;;;;5013553;28;20422;-84
2023/05/08 04:37:30;;;;;;;21.70;19.43;;;17.00;99.90;;;;;;5014008;28;20410;-80
2023/05/08 04:39:57;;;;;;;22.13;20.03;;;17.00;99.90;;;;;;5011484;28;20433;-83
2023/05/08 04:42:24;;;;;;;21.37;19.20;;;17.00;99.90;;;;;;5012719;28;20437;-80
2023/05/08 04:44:51;;;;;;;21.43;19.23;;;17.00;99.90;;;;;;5013762;28;20406;-84
2023/05/08 04:47:17;;;;;;;19.30;17.40;;;17.00;99.90;;;;;;5014352;28;20760;-83
2023/05/08 04:49:43;;;;;;;20.23;18.23;;;17.00;99.90;;;;;;5013551;28;20503;-84
2023/05/08 04:52:09;;;;;;;19.60;17.60;;;17.00;99.90;;;;;;5012695;28;20473;-84
2023/05/08 04:54:35;;;;;;;20.47;18.27;;;17.00;99.90;;;;;;5013441;28;20552;-84
2023/05/08 04:57:01;;;;;;;19.93;17.93;;;17.00;99.90;;;;;;5013794;28;20421;-84
2023/05/08 04:59:28;;;;;;;19.00;17.10;;;17.10;99.90;;;;;;5012546;28;20218;-83
2023/05/08 05:01:55;;;;;;;18.20;16.40;;;17.10;99.90;;;;;;5012390;28;20430;-84
2023/05/08 05:04:21;;;;;;;18.57;16.83;;;17.00;99.90;;;;;;5013392;28;20456;-79
2023/05/08 05:06:47;;;;;;;19.60;17.33;;;17.10;99.90;;;;;;5012522;28;20909;-85
2023/05/08 05:09:13;;;;;;;17.50;15.70;;;17.10;99.90;;;;;;5014095;28;20421;-83
2023/05/08 05:11:38;;;;;;;17.73;15.90;;;17.10;99.90;;;;;;5012107;28;20179;-83
2023/05/08 05:14:06;;;;;;;19.07;16.50;;;17.10;99.90;;;;;;5010670;28;20509;-82
2023/05/08 05:16:32;;;;;;;19.90;17.87;;;17.20;99.90;;;;;;5011074;28;20602;-74
2023/05/08 05:18:58;;;;;;;18.23;16.53;;;17.20;99.90;;;;;;5010703;28;20532;-74
2023/05/08 05:21:24;;;;;;;16.30;14.80;;;17.40;99.90;;;;;;5006284;28;20462;-74
2023/05/08 05:23:50;;;;;;;15.83;14.30;;;17.60;99.90;;;;;;5010973;28;20422;-74
2023/05/08 05:26:16;;;;;;;15.30;13.80;;;17.90;99.90;;;;;;5012810;28;20425;-74
2023/05/08 05:28:42;;;;;;;15.17;13.70;;;18.10;99.90;;;;;;5012122;28;20426;-74
2023/05/08 05:31:08;;;;;;;16.80;15.10;;;18.30;99.90;;;;;;5010931;28;20437;-76
2023/05/08 05:33:34;;;;;;;28.90;24.20;;;18.30;99.90;;;;;;5010064;28;20245;-76
2023/05/08 05:36:00;;;;;;;21.70;18.80;;;18.10;99.90;;;;;;5011697;28;20426;-76
2023/05/08 05:38:26;;;;;;;20.30;18.20;;;18.00;99.90;;;;;;5011872;28;20672;-76
2023/05/08 05:40:51;;;;;;;16.20;13.67;;;17.80;99.90;;;;;;5009764;28;20441;-77
2023/05/08 05:43:17;;;;;;;14.17;12.97;;;17.80;99.90;;;;;;5012826;28;20232;-77
2023/05/08 05:45:43;;;;;;;23.10;18.57;;;17.80;99.90;;;;;;5010095;28;20191;-77
2023/05/08 05:48:09;;;;;;;19.90;15.87;;;18.10;99.90;;;;;;5010727;28;20657;-77
2023/05/08 05:50:36;;;;;;;13.17;12.03;;;18.30;99.90;;;;;;5011963;28;20701;-80
2023/05/08 05:53:02;;;;;;;13.73;12.63;;;18.50;99.90;;;;;;5012807;28;20410;-81
2023/05/08 05:55:28;;;;;;;15.20;13.90;;;18.70;99.90;;;;;;5008735;28;20429;-75
2023/05/08 05:57:54;;;;;;;14.00;12.70;;;18.80;99.90;;;;;;5011570;28;20469;-77
2023/05/08 06:00:20;;;;;;;14.57;13.07;;;18.80;99.90;;;;;;5009664;28;20179;-76
2023/05/08 06:02:46;;;;;;;13.47;12.07;;;18.70;99.90;;;;;;5001190;28;20176;-77
2023/05/08 06:05:12;;;;;;;13.87;12.63;;;18.60;99.90;;;;;;4992690;28;20816;-77
2023/05/08 06:07:38;;;;;;;15.10;13.60;;;18.60;99.90;;;;;;5010492;28;20418;-77
2023/05/08 06:10:05;;;;;;;14.70;13.23;;;18.50;99.90;;;;;;5010263;28;20875;-78
2023/05/08 06:12:31;;;;;;;13.77;12.47;;;18.40;99.90;;;;;;5012004;28;20475;-77
2023/05/08 06:14:56;;;;;;;13.83;12.47;;;18.40;99.90;;;;;;5001071;28;20430;-76
2023/05/08 06:17:22;;;;;;;13.50;12.10;;;18.30;99.90;;;;;;5010936;28;20225;-76
2023/05/08 06:19:49;;;;;;;13.90;12.80;;;18.20;99.90;;;;;;5012128;28;20194;-76
2023/05/08 06:22:17;;;;;;;14.50;13.20;;;18.20;99.90;;;;;;5005919;28;20426;-76
2023/05/08 06:24:42;;;;;;;15.43;13.93;;;18.20;99.90;;;;;;5003352;28;20431;-77
2023/05/08 06:27:09;;;;;;;16.27;13.90;;;18.10;99.90;;;;;;5009581;28;20428;-77
2023/05/08 06:29:34;;;;;;;14.63;13.30;;;18.10;99.90;;;;;;5009705;28;20179;-76
2023/05/08 06:32:00;;;;;;;14.83;13.27;;;18.10;99.90;;;;;;5002523;28;20418;-75
2023/05/08 06:34:26;;;;;;;14.80;13.60;;;18.10;99.90;;;;;;4990551;28;20180;-75
2023/05/08 06:36:52;;;;;;;17.27;15.50;;;18.10;99.90;;;;;;4992392;28;20179;-76
2023/05/08 06:39:18;;;;;;;15.33;13.70;;;18.10;99.90;;;;;;4991463;28;20302;-76
2023/05/08 06:41:47;;;;;;;14.23;12.83;;;18.10;99.90;;;;;;5010404;28;20186;-76
2023/05/08 06:44:13;;;;;;;13.40;12.20;;;18.10;99.90;;;;;;4996344;28;20172;-76
2023/05/08 06:46:42;;;;;;;16.00;14.57;;;18.10;99.90;;;;;;4991368;28;20757;-76
2023/05/08 06:49:07;;;;;;;13.30;12.13;;;18.10;99.90;;;;;;4992256;28;20418;-76
2023/05/08 06:51:37;;;;;;;14.40;13.10;;;18.20;99.90;;;;;;4991035;28;20220;-76
2023/05/08 06:54:06;;;;;;;12.57;11.40;;;18.20;99.90;;;;;;4995720;28;20704;-76
2023/05/08 06:56:35;;;;;;;12.60;11.40;;;18.20;99.90;;;;;;5002019;28;20422;-76
2023/05/08 06:59:01;;;;;;;12.80;11.70;;;18.30;99.90;;;;;;5004047;28;20468;-76
2023/05/08 07:01:26;;;;;;;12.10;10.97;;;18.30;99.90;;;;;;5003063;28;20911;-76
2023/05/08 07:03:52;;;;;;;12.53;11.43;;;18.30;99.90;;;;;;4992639;28;20187;-75
2023/05/08 07:06:18;;;;;;;13.07;11.97;;;18.30;99.90;;;;;;5012695;28;20486;-79
2023/05/08 07:08:44;;;;;;;13.27;12.07;;;18.40;99.90;;;;;;5012811;28;20512;-75
2023/05/08 07:11:10;;;;;;;11.77;10.87;;;18.40;99.90;;;;;;5012899;28;20409;-75
2023/05/08 07:13:36;;;;;;;11.90;10.93;;;18.40;99.90;;;;;;5011812;28;20179;-74
2023/05/08 07:16:02;;;;;;;12.90;11.80;;;18.40;99.90;;;;;;5013010;28;20178;-76
2023/05/08 07:18:28;;;;;;;13.77;12.57;;;18.40;99.90;;;;;;5011482;28;20286;-76
2023/05/08 07:20:53;;;;;;;12.50;11.50;;;18.40;99.90;;;;;;5012753;28;20505;-76
2023/05/08 07:23:20;;;;;;;12.90;11.83;;;18.50;99.90;;;;;;5012758;28;20170;-76
2023/05/08 07:25:46;;;;;;;12.23;11.13;;;18.50;99.90;;;;;;5011924;28;20167;-76
2023/05/08 07:28:12;;;;;;;13.43;12.40;;;18.50;99.90;;;;;;5012401;28;20433;-76
2023/05/08 07:30:38;;;;;;;12.47;11.47;;;18.50;99.90;;;;;;5011511;28;20758;-75
2023/05/08 07:33:04;;;;;;;13.07;11.97;;;18.50;99.90;;;;;;5010712;28;20410;-75
2023/05/08 07:35:30;;;;;;;12.43;11.47;;;18.50;99.90;;;;;;4995439;28;20241;-75
2023/05/08 07:37:56;;;;;;;11.10;10.20;;;18.50;99.90;;;;;;5007100;28;20465;-75
2023/05/08 07:40:22;;;;;;;10.90;9.97;;;18.40;99.90;;;;;;5011662;28;20178;-75
2023/05/08 07:42:48;;;;;;;11.10;10.13;;;18.50;99.90;;;;;;5012572;28;20269;-75
2023/05/08 07:45:13;;;;;;;11.23;10.20;;;18.50;99.90;;;;;;5000632;28;20176;-75
2023/05/08 07:47:51;;;;;;;12.57;11.63;;;18.50;99.90;;;;;;4994498;28;20270;-75
2023/05/08 07:50:17;;;;;;;11.53;10.63;;;18.50;99.90;;;;;;5013849;28;20159;-75
2023/05/08 07:52:44;;;;;;;10.50;9.60;;;18.40;99.90;;;;;;5015132;28;20461;-75
2023/05/08 07:55:09;;;;;;;10.37;9.50;;;18.40;99.90;;;;;;5015749;28;20420;-75
2023/05/08 07:57:37;;;;;;;11.33;10.27;;;18.40;99.90;;;;;;5015141;28;20457;-76
2023/05/08 08:00:04;;;;;;;9.93;9.17;;;18.20;99.90;;;;;;5015781;28;20185;-75
2023/05/08 08:02:30;;;;;;;10.10;9.30;;;18.10;99.90;;;;;;5014913;28;20414;-75
2023/05/08 08:04:56;;;;;;;10.57;9.77;;;18.10;99.90;;;;;;5015447;28;20421;-78
2023/05/08 08:07:22;;;;;;;12.17;11.17;;;18.20;99.90;;;;;;5014967;28;20581;-74
2023/05/08 08:09:48;;;;;;;11.87;10.90;;;18.20;99.90;;;;;;5015759;28;20179;-76
2023/05/08 08:12:14;;;;;;;11.53;10.63;;;18.20;99.90;;;;;;5015600;28;20456;-75
2023/05/08 08:14:40;;;;;;;10.73;9.83;;;18.20;99.90;;;;;;5014906;28;20182;-78
2023/05/08 08:17:05;;;;;;;11.10;10.10;;;18.30;99.90;;;;;;5015385;28;20390;-78
2023/05/08 08:19:31;;;;;;;12.47;11.37;;;18.40;99.90;;;;;;5014732;28;20268;-73
2023/05/08 08:21:57;;;;;;;10.90;10.00;;;18.40;99.90;;;;;;5015194;28;20265;-74
2023/05/08 08:24:26;;;;;;;10.43;9.63;;;18.50;99.90;;;;;;5011135;28;20273;-73
2023/05/08 08:26:52;;;;;;;10.00;9.20;;;18.40;99.90;;;;;;5014637;28;20187;-74
2023/05/08 08:29:17;;;;;;;11.87;11.07;;;18.40;99.90;;;;;;5013554;28;20437;-74
2023/05/08 08:31:43;;;;;;;10.53;9.67;;;18.50;99.90;;;;;;5013385;28;20439;-75
2023/05/08 08:34:09;;;;;;;9.70;8.80;;;18.50;99.90;;;;;;5011125;28;20266;-74
2023/05/08 08:36:35;;;;;;;10.90;8.33;;;18.50;99.90;;;;;;5007861;28;20261;-76
2023/05/08 08:39:00;;;;;;;19.53;9.20;;;18.50;99.90;;;;;;5007641;28;20792;-75
2023/05/08 08:41:26;;;;;;;9.90;8.10;;;18.50;99.90;;;;;;5014274;28;20186;-73
2023/05/08 08:43:58;;;;;;;10.27;8.90;;;18.50;99.90;;;;;;5014455;28;20171;-73
2023/05/08 08:46:26;;;;;;;9.27;8.50;;;18.60;99.90;;;;;;5015388;28;20410;-74
2023/05/08 08:48:54;;;;;;;9.73;8.73;;;18.60;99.90;;;;;;5015037;28;20418;-74
2023/05/08 08:51:43;;;;;;;9.67;8.97;;;18.60;99.90;;;;;;5014589;28;20512;-74
2023/05/08 08:54:12;;;;;;;9.53;8.77;;;18.70;99.90;;;;;;5014750;28;20430;-74
2023/05/08 08:56:41;;;;;;;10.57;9.57;;;18.70;99.90;;;;;;5014519;28;20803;-74
2023/05/08 08:59:08;;;;;;;10.17;9.30;;;18.70;99.90;;;;;;5013871;28;20458;-74
2023/05/08 09:01:37;;;;;;;10.23;9.43;;;18.80;99.90;;;;;;5013692;28;20446;-73
2023/05/08 09:04:04;;;;;;;10.23;9.27;;;18.80;99.90;;;;;;5014722;28;20402;-74
2023/05/08 09:06:34;;;;;;;11.03;10.23;;;18.80;99.90;;;;;;5014316;28;20889;-73
2023/05/08 09:09:01;;;;;;;10.70;9.90;;;18.80;99.90;;;;;;5014619;28;20413;-73
2023/05/08 09:11:27;;;;;;;11.03;10.03;;;18.90;99.90;;;;;;5014011;28;20410;-72
2023/05/08 09:13:56;;;;;;;11.33;10.40;;;18.90;99.90;;;;;;5014614;28;20402;-73
2023/05/08 09:16:26;;;;;;;11.87;10.73;;;18.90;99.90;;;;;;5014537;28;20485;-73
2023/05/08 09:18:52;;;;;;;12.07;11.03;;;19.00;99.90;;;;;;5014767;28;20888;-74
2023/05/08 09:21:19;;;;;;;11.67;10.67;;;19.00;99.90;;;;;;5014433;28;20489;-74
2023/05/08 09:23:55;;;;;;;12.07;11.03;;;19.00;99.90;;;;;;5013221;28;20183;-74
2023/05/08 09:26:37;;;;;;;13.00;11.70;;;19.10;99.90;;;;;;5014349;28;20433;-74
2023/05/08 09:29:15;;;;;;;13.40;12.20;;;19.10;99.90;;;;;;5013274;28;20406;-73
2023/05/08 09:31:43;;;;;;;12.07;10.87;;;19.20;99.90;;;;;;5013292;28;20597;-73
2023/05/08 09:34:20;;;;;;;11.60;10.57;;;19.20;99.90;;;;;;5012278;28;20410;-73
2023/05/08 09:36:46;;;;;;;11.43;10.43;;;19.30;99.90;;;;;;4992823;28;20395;-73
2023/05/08 09:39:19;;;;;;;12.00;10.90;;;19.30;99.90;;;;;;4994541;28;20458;-73
2023/05/08 09:42:04;;;;;;;11.40;10.23;;;19.30;99.90;;;;;;4993905;28;20242;-74
2023/05/08 09:44:48;;;;;;;10.47;9.47;;;19.30;99.90;;;;;;4993767;28;20412;-73
2023/05/08 09:47:16;;;;;;;10.23;9.33;;;19.30;99.90;;;;;;4994295;28;20414;-73
2023/05/08 09:49:57;;;;;;;12.27;11.17;;;19.30;99.90;;;;;;4993725;28;20415;-73
2023/05/08 09:52:23;;;;;;;11.40;10.40;;;19.40;99.90;;;;;;4994613;28;20494;-73
2023/05/08 09:55:07;;;;;;;10.70;9.80;;;19.40;99.90;;;;;;5013225;28;20425;-74
2023/05/08 09:57:38;;;;;;;8.30;7.80;;;19.50;99.90;;;;;;5013179;28;20464;-73
2023/05/08 10:00:13;;;;;;;6.10;5.63;;;19.50;99.90;;;;;;5013670;28;20433;-73
2023/05/08 10:02:54;;;;;;;5.23;4.93;;;19.40;99.90;;;;;;5012827;28;20402;-73
2023/05/08 10:05:26;;;;;;;6.03;5.63;;;19.30;99.90;;;;;;5013647;28;20398;-74
2023/05/08 10:07:52;;;;;;;5.57;5.17;;;19.30;99.90;;;;;;5012972;28;20486;-73
2023/05/08 10:10:25;;;;;;;5.93;5.53;;;19.30;99.90;;;;;;5013675;28;20952;-73
2023/05/08 10:12:52;;;;;;;6.23;5.80;;;19.40;99.90;;;;;;5012420;28;20482;-73
2023/05/08 10:15:21;;;;;;;5.77;5.40;;;19.50;99.90;;;;;;5011872;28;20782;-74
2023/05/08 10:17:56;;;;;;;5.80;5.30;;;19.50;99.90;;;;;;5012509;28;20955;-73
2023/05/08 10:20:27;;;;;;;7.30;6.93;;;19.50;99.90;;;;;;5011814;28;20461;-73
2023/05/08 10:22:55;;;;;;;6.80;6.40;;;19.40;99.90;;;;;;5011375;28;20448;-73
2023/05/08 10:25:22;;;;;;;5.90;5.40;;;19.40;99.90;;;;;;5013271;28;20505;-73
2023/05/08 10:27:54;;;;;;;6.10;5.77;;;19.30;99.90;;;;;;5012705;28;20950;-73
2023/05/08 10:30:24;;;;;;;5.90;5.60;;;19.40;99.90;;;;;;5013260;28;20442;-73
2023/05/08 10:32:53;;;;;;;6.63;6.07;;;19.40;99.90;;;;;;5012474;28;20395;-73
2023/05/08 10:35:19;;;;;;;5.80;5.47;;;19.50;99.90;;;;;;5013280;28;20398;-73
2023/05/08 10:37:47;;;;;;;5.73;5.23;;;19.50;99.90;;;;;;5012481;28;20457;-73
2023/05/08 10:40:14;;;;;;;6.60;6.00;;;19.50;99.90;;;;;;5011925;28;20414;-73
2023/05/08 10:42:40;;;;;;;6.07;5.77;;;19.40;99.90;;;;;;5012472;28;20415;-73
2023/05/08 10:45:08;;;;;;;6.70;6.30;;;19.50;99.90;;;;;;5013056;28;20406;-74
2023/05/08 10:47:58;;;;;;;10.30;9.77;;;19.50;99.90;;;;;;5012149;28;20402;-73
2023/05/08 10:50:24;;;;;;;5.80;5.40;;;19.50;99.90;;;;;;5012190;28;20437;-73
2023/05/08 10:52:58;;;;;;;6.90;6.30;;;19.50;99.90;;;;;;5010312;28;20449;-73
2023/05/08 10:55:32;;;;;;;5.90;5.50;;;19.50;99.90;;;;;;5012937;28;20197;-74
2023/05/08 10:58:16;;;;;;;6.07;5.67;;;19.50;99.90;;;;;;5009242;28;21131;-73
2023/05/08 11:00:59;;;;;;;6.13;5.63;;;19.50;99.90;;;;;;5011930;28;20422;-73
2023/05/08 11:03:26;;;;;;;6.40;6.00;;;19.60;99.90;;;;;;5012686;28;20470;-74
2023/05/08 11:05:55;;;;;;;6.07;5.67;;;19.60;99.90;;;;;;5012164;28;20398;-73
2023/05/08 11:08:26;;;;;;;6.10;5.70;;;19.50;99.90;;;;;;5011721;28;20496;-74
2023/05/08 11:11:06;;;;;;;5.97;5.50;;;19.30;99.90;;;;;;5012145;28;20402;-73
2023/05/08 11:13:39;;;;;;;7.30;6.80;;;19.30;99.90;;;;;;5012709;28;20416;-73
2023/05/08 11:16:06;;;;;;;6.77;6.20;;;19.40;99.90;;;;;;5012240;28;20418;-73
2023/05/08 11:18:32;;;;;;;6.63;6.23;;;19.50;99.90;;;;;;5011311;28;20802;-73
2023/05/08 11:20:58;;;;;;;7.13;6.73;;;19.50;99.90;;;;;;5009049;28;20476;-73
2023/05/08 11:23:25;;;;;;;7.23;6.73;;;19.50;99.90;;;;;;5011893;28;20429;-73
2023/05/08 11:26:06;;;;;;;7.33;6.83;;;19.70;99.90;;;;;;5014556;28;20182;-73
2023/05/08 11:29:16;;;;;;;6.93;6.50;;;19.70;99.90;;;;;;5016587;28;20432;-74
2023/05/08 11:31:51;;;;;;;7.50;7.00;;;19.70;99.90;;;;;;4952126;29;20448;-74
2023/05/08 11:34:41;;;;;;;7.30;6.80;;;19.80;99.90;;;;;;5004600;28;20445;-74
2023/05/08 11:37:17;;;;;;;8.60;7.97;;;19.70;99.90;;;;;;5016477;28;20413;-72
2023/05/08 11:39:43;;;;;;;7.30;6.90;;;19.70;99.90;;;;;;5013549;28;20537;-73
2023/05/08 11:42:23;;;;;;;6.40;6.00;;;19.80;99.90;;;;;;5010193;28;20426;-73
2023/05/08 11:45:09;;;;;;;5.77;5.40;;;19.80;99.90;;;;;;5005258;28;20448;-73
2023/05/08 11:47:42;;;;;;;5.20;4.90;;;19.80;99.90;;;;;;5010831;28;20432;-73
2023/05/08 11:50:10;;;;;;;6.33;6.03;;;19.80;99.90;;;;;;5014101;28;20449;-73
2023/05/08 11:52:37;;;;;;;4.63;4.33;;;19.70;99.90;;;;;;5015174;28;20461;-72
2023/05/08 11:55:08;;;;;;;4.77;4.57;;;19.80;99.90;;;;;;5011385;28;20461;-72
2023/05/08 11:57:34;;;;;;;5.70;5.40;;;19.80;99.90;;;;;;5016049;28;20402;-73
2023/05/08 12:00:10;;;;;;;5.00;4.70;;;19.80;99.90;;;;;;5009422;28;20608;-73
2023/05/08 12:02:37;;;;;;;5.53;5.23;;;19.80;99.90;;;;;;5010308;28;20438;-73
2023/05/08 12:05:04;;;;;;;5.23;4.83;;;19.90;99.90;;;;;;5024338;28;20786;-73
2023/05/08 12:07:30;;;;;;;5.40;5.10;;;19.90;99.90;;;;;;5015931;28;20410;-74
2023/05/08 12:09:55;;;;;;;5.70;5.40;;;20.00;99.90;;;;;;5015184;28;20506;-74
2023/05/08 12:12:21;;;;;;;5.77;5.43;;;20.10;99.90;;;;;;5015543;28;20179;-75
2023/05/08 12:14:50;;;;;;;5.67;5.30;;;20.10;99.90;;;;;;5015113;28;20179;-73
2023/05/08 12:17:19;;;;;;;5.37;5.00;;;20.10;99.90;;;;;;5015837;28;20198;-74
2023/05/08 12:19:45;;;;;;;5.90;5.40;;;20.10;99.90;;;;;;5014945;28;20430;-73
2023/05/08 12:22:11;;;;;;;6.20;5.80;;;20.10;99.90;;;;;;5015557;28;20418;-74
2023/05/08 12:24:38;;;;;;;5.83;5.53;;;20.10;99.90;;;;;;5015588;28;20171;-75
2023/05/08 12:27:04;;;;;;;5.50;5.10;;;20.20;99.90;;;;;;5012538;28;20867;-74
2023/05/08 12:29:34;;;;;;;6.20;5.90;;;20.30;99.90;;;;;;5014896;28;20437;-75
2023/05/08 12:31:59;;;;;;;7.60;7.10;;;20.30;99.90;;;;;;5007850;28;20190;-73
2023/05/08 12:34:25;;;;;;;8.00;7.40;;;20.40;99.90;;;;;;5005633;28;20411;-74
2023/05/08 12:37:03;;;;;;;7.00;6.60;;;20.40;99.90;;;;;;4996346;28;20172;-73
2023/05/08 12:39:36;;;;;;;7.23;6.53;;;20.30;99.90;;;;;;4994864;28;20195;-74
2023/05/08 12:42:02;;;;;;;6.67;6.07;;;20.20;99.90;;;;;;4995007;28;20554;-73
2023/05/08 12:44:30;;;;;;;9.63;9.10;;;20.20;99.90;;;;;;4995608;28;20490;-74
2023/05/08 12:46:56;;;;;;;6.50;6.00;;;20.30;99.90;;;;;;5003239;28;20186;-73